Time;durP1;ratioP1;P1;durP2;ratioP2;P2;SDS_P1;SDS_P2;PMS_P1;PMS_P2;Temp;Humidity;BMP_temperature;BMP_pressure;BME280_temperature;BME280_humidity;BME280_pressure;Samples;Min_cycle;Max_cycle;Signal;HPM_P1;HPM_P2
2022/10/23 00:07:58;;;;;;;3.10;2.80;;;;;;;8.80;100.00;99771.84;6045829;23;20300;-80
2022/10/23 00:10:26;;;;;;;3.83;2.83;;;;;;;8.79;100.00;99777.38;6035652;23;20208;-80
2022/10/23 00:12:53;;;;;;;2.50;2.30;;;;;;;8.77;100.00;99769.56;6037625;23;20218;-81
2022/10/23 00:15:21;;;;;;;5.17;2.70;;;;;;;8.81;100.00;99761.97;6037550;23;20551;-81
2022/10/23 00:17:48;;;;;;;3.00;2.70;;;;;;;8.73;100.00;99765.66;6035901;23;20293;-81
2022/10/23 00:20:15;;;;;;;3.83;2.53;;;;;;;8.70;100.00;99759.91;6038377;23;20245;-81
2022/10/23 00:22:42;;;;;;;2.83;2.40;;;;;;;8.73;100.00;99765.66;6012148;23;20213;-80
2022/10/23 00:25:09;;;;;;;4.67;3.50;;;;;;;8.73;100.00;99768.31;6038102;23;20216;-80
2022/10/23 00:27:36;;;;;;;7.07;4.10;;;;;;;8.72;100.00;99766.72;6037664;23;20213;-80
2022/10/23 00:30:04;;;;;;;5.73;4.57;;;;;;;8.77;100.00;99766.88;6011873;23;20265;-80
2022/10/23 00:32:31;;;;;;;4.87;3.80;;;;;;;8.76;100.00;99769.78;6037595;23;20277;-81
2022/10/23 00:35:03;;;;;;;5.50;4.30;;;;;;;8.75;100.00;99766.28;6037027;23;20210;-80
2022/10/23 00:37:30;;;;;;;4.70;4.07;;;;;;;8.71;100.00;99774.91;6038952;23;20205;-80
2022/10/23 00:39:57;;;;;;;4.77;4.27;;;;;;;8.68;100.00;99776.13;6037835;23;20216;-81
2022/10/23 00:42:23;;;;;;;6.27;5.60;;;;;;;8.66;100.00;99769.34;6042444;23;20211;-81
2022/10/23 00:44:50;;;;;;;6.20;5.50;;;;;;;8.70;100.00;99773.25;6042772;23;20221;-81
2022/10/23 00:47:17;;;;;;;6.37;5.40;;;;;;;8.70;100.00;99776.75;6039514;23;20607;-81
2022/10/23 00:49:43;;;;;;;4.90;4.40;;;;;;;8.76;100.00;99764.44;6039673;23;20205;-81
2022/10/23 00:52:12;;;;;;;5.07;4.33;;;;;;;8.79;100.00;99775.53;6038807;23;20229;-81
2022/10/23 00:54:41;;;;;;;5.83;4.50;;;;;;;8.80;100.00;99768.34;6037652;23;20550;-81
2022/10/23 00:57:11;;;;;;;5.67;4.43;;;;;;;8.71;100.00;99770.41;6037230;23;20213;-81
2022/10/23 00:59:40;;;;;;;5.57;4.97;;;;;;;8.78;100.00;99776.56;6037874;23;20237;-81
2022/10/23 01:02:07;;;;;;;6.87;5.97;;;;;;;8.73;100.00;99779.00;6040721;23;20213;-80
2022/10/23 01:04:33;;;;;;;5.70;5.10;;;;;;;8.68;100.00;99784.13;6021419;23;20270;-81
2022/10/23 01:07:08;;;;;;;7.20;5.17;;;;;;;8.60;100.00;99789.69;5983367;23;20214;-81
2022/10/23 01:09:50;;;;;;;6.07;5.47;;;;;;;8.58;100.00;99785.59;5989639;23;20209;-81
2022/10/23 01:12:31;;;;;;;6.27;5.63;;;;;;;8.47;100.00;99780.81;5989549;23;20552;-80
2022/10/23 01:15:05;;;;;;;6.50;5.90;;;;;;;8.45;100.00;99786.34;6027163;23;20214;-82
2022/10/23 01:17:52;;;;;;;6.10;5.50;;;;;;;8.39;100.00;99785.34;6034377;23;20174;-82
2022/10/23 01:20:30;;;;;;;6.53;5.93;;;;;;;8.27;100.00;99781.56;6007285;23;20233;-82
2022/10/23 01:23:06;;;;;;;7.33;6.60;;;;;;;8.24;100.00;99778.47;6001247;23;20226;-81
2022/10/23 01:25:36;;;;;;;7.17;6.33;;;;;;;8.10;100.00;99782.94;6020505;23;20233;-81
2022/10/23 01:28:09;;;;;;;6.50;5.90;;;;;;;8.06;100.00;99792.38;5993981;23;20206;-80
2022/10/23 01:30:39;;;;;;;6.63;5.97;;;;;;;7.95;100.00;99779.59;5995279;23;20210;-81
2022/10/23 01:33:14;;;;;;;6.40;5.73;;;;;;;7.95;100.00;99782.25;5995324;23;20668;-81
2022/10/23 01:35:49;;;;;;;7.60;6.40;;;;;;;7.90;100.00;99792.72;5974815;23;20243;-81
2022/10/23 04:00:46;;;;;;;4.60;4.17;;;;;;;6.39;100.00;99794.22;6078387;23;20222;-82
2022/10/23 04:03:17;;;;;;;5.40;4.17;;;;;;;6.43;100.00;99790.16;6090179;23;20169;-83
2022/10/23 04:05:45;;;;;;;3.97;3.60;;;;;;;6.39;100.00;99789.69;6064188;23;20268;-82
2022/10/23 04:08:16;;;;;;;4.53;3.90;;;;;;;6.39;100.00;99791.56;6060480;23;20219;-82
2022/10/23 04:10:49;;;;;;;4.63;3.97;;;;;;;6.33;100.00;99782.50;6078257;23;20222;-81
2022/10/23 04:13:19;;;;;;;5.33;4.33;;;;;;;6.39;100.00;99792.38;6021384;23;20276;-80
2022/10/23 04:15:50;;;;;;;4.07;3.40;;;;;;;6.39;100.00;99791.56;6069254;23;20283;-80
2022/10/23 04:18:16;;;;;;;4.03;3.63;;;;;;;6.43;100.00;99790.16;6019734;23;20731;-80
2022/10/23 04:20:46;;;;;;;3.70;3.40;;;;;;;6.41;100.00;99786.88;6043775;23;20205;-80
2022/10/23 04:23:14;;;;;;;3.47;3.17;;;;;;;6.41;100.00;99789.53;6043738;23;20601;-80
2022/10/23 04:25:41;;;;;;;3.60;3.30;;;;;;;6.43;100.00;99792.84;6043523;23;20260;-80
2022/10/23 04:28:08;;;;;;;4.13;3.57;;;;;;;6.43;100.00;99782.19;6067965;23;20610;-80
2022/10/23 04:30:37;;;;;;;4.17;3.77;;;;;;;6.41;100.00;99781.53;6021094;23;20211;-80
2022/10/23 04:33:05;;;;;;;4.00;3.60;;;;;;;6.43;100.00;99785.69;6069527;23;20227;-80
2022/10/23 04:35:32;;;;;;;5.43;3.30;;;;;;;6.47;100.00;99773.63;6067988;23;20216;-81
2022/10/23 04:37:58;;;;;;;4.10;3.40;;;;;;;6.50;100.00;99773.25;6070239;23;20215;-81
2022/10/23 04:40:25;;;;;;;4.33;3.67;;;;;;;6.51;100.00;99774.06;6044228;23;20208;-80
2022/10/23 04:42:53;;;;;;;4.70;3.70;;;;;;;6.52;100.00;99773.06;6046330;23;20225;-80
2022/10/23 04:45:20;;;;;;;4.27;3.70;;;;;;;6.54;100.00;99774.50;6046028;23;20239;-80
2022/10/23 04:47:46;;;;;;;3.90;3.27;;;;;;;6.58;100.00;99772.28;6044741;23;20234;-80
2022/10/23 04:50:13;;;;;;;5.03;3.70;;;;;;;6.61;100.00;99769.25;6067970;23;20215;-80
2022/10/23 04:52:59;;;;;;;3.90;3.53;;;;;;;6.63;100.00;99777.88;6070248;23;20287;-80
2022/10/23 04:55:51;;;;;;;3.63;3.33;;;;;;;6.61;100.00;99763.94;6069794;23;20260;-80
2022/10/23 04:58:23;;;;;;;4.43;4.00;;;;;;;6.57;100.00;99768.81;6021618;23;20207;-80
2022/10/23 05:00:51;;;;;;;4.13;3.00;;;;;;;6.52;100.00;99773.06;6044848;23;20552;-80
2022/10/23 05:03:25;;;;;;;3.60;3.30;;;;;;;6.52;100.00;99775.72;6045443;23;20208;-81
2022/10/23 05:05:54;;;;;;;4.93;3.27;;;;;;;6.53;100.00;99778.19;6044868;23;20275;-80
2022/10/23 05:08:39;;;;;;;3.47;3.17;;;;;;;6.45;100.00;99770.31;6048831;23;20210;-80
2022/10/23 05:11:24;;;;;;;3.30;2.93;;;;;;;6.43;100.00;99776.88;6069647;23;20619;-81
2022/10/23 05:13:50;;;;;;;3.27;2.93;;;;;;;6.33;100.00;99771.84;6043905;23;20216;-80
2022/10/23 05:16:51;;;;;;;3.93;3.40;;;;;;;6.30;100.00;99768.75;6043385;23;20208;-79
2022/10/23 05:19:21;;;;;;;4.37;3.37;;;;;;;6.29;100.00;99772.41;6015780;23;20219;-80
2022/10/23 05:21:54;;;;;;;4.13;3.53;;;;;;;6.25;100.00;99777.31;6022154;23;20217;-80
2022/10/23 05:24:25;;;;;;;4.70;3.13;;;;;;;6.25;100.00;99771.16;6070558;23;20226;-80
2022/10/23 05:26:58;;;;;;;3.90;3.50;;;;;;;6.30;100.00;99774.06;6044410;23;20208;-80
2022/10/23 05:29:29;;;;;;;3.60;3.30;;;;;;;6.24;100.00;99769.50;6070222;23;20679;-80
2022/10/23 05:31:58;;;;;;;3.83;3.40;;;;;;;6.24;100.00;99767.66;6068265;23;20292;-80
2022/10/23 05:34:29;;;;;;;3.70;3.30;;;;;;;6.27;100.00;99759.28;6044162;23;20276;-80
2022/10/23 05:36:56;;;;;;;4.83;4.33;;;;;;;6.24;100.00;99766.84;6045090;23;20684;-80
2022/10/23 05:39:22;;;;;;;4.90;4.30;;;;;;;6.26;100.00;99775.44;6071005;23;20208;-80
2022/10/23 05:41:51;;;;;;;5.50;4.60;;;;;;;6.29;100.00;99775.91;6071127;23;20220;-80
2022/10/23 05:44:21;;;;;;;6.07;4.50;;;;;;;6.32;100.00;99772.84;6044881;23;20256;-80
2022/10/23 05:47:17;;;;;;;4.63;4.13;;;;;;;6.32;100.00;99785.34;5944214;23;20636;-80
2022/10/23 05:49:43;;;;;;;4.97;4.43;;;;;;;6.40;100.00;99782.53;6070937;23;20216;-80
2022/10/23 05:52:19;;;;;;;5.07;4.00;;;;;;;6.45;100.00;99780.16;6069717;23;20213;-80
2022/10/23 05:55:05;;;;;;;4.20;3.53;;;;;;;6.56;100.00;99775.16;6044762;23;20603;-80
2022/10/23 05:58:01;;;;;;;4.00;3.60;;;;;;;6.57;100.00;99779.47;6070390;23;20204;-80
2022/10/23 06:00:55;;;;;;;4.03;3.63;;;;;;;6.64;100.00;99785.66;6051047;23;20213;-80
2022/10/23 06:03:40;;;;;;;4.73;4.30;;;;;;;6.73;100.00;99785.53;6072171;23;20276;-80
2022/10/23 06:06:09;;;;;;;4.27;3.87;;;;;;;6.70;100.00;99792.06;6070249;23;20260;-80
2022/10/23 06:08:43;;;;;;;4.13;3.80;;;;;;;6.80;100.00;99797.09;6047153;23;20213;-80
2022/10/23 06:11:12;;;;;;;5.37;3.90;;;;;;;6.89;100.00;99791.44;6069893;23;20340;-80
2022/10/23 06:13:43;;;;;;;4.27;3.87;;;;;;;6.98;100.00;99795.63;6044837;23;20608;-80
2022/10/23 06:16:12;;;;;;;4.70;4.30;;;;;;;7.06;100.00;99805.28;6021642;23;20209;-80
2022/10/23 06:18:40;;;;;;;5.07;4.63;;;;;;;7.18;100.00;99806.44;6046028;23;20532;-81
2022/10/23 06:21:12;;;;;;;5.00;4.37;;;;;;;7.29;100.00;99800.56;6047607;23;20228;-80
2022/10/23 06:23:39;;;;;;;6.33;4.83;;;;;;;7.39;100.00;99801.03;6071785;23;20354;-80
2022/10/23 06:26:25;;;;;;;6.57;5.10;;;;;;;7.58;100.00;99801.34;6029916;23;20215;-80
2022/10/23 06:28:59;;;;;;;5.07;4.53;;;;;;;7.70;100.00;99797.13;6045954;23;20229;-80
2022/10/23 06:31:27;;;;;;;5.63;5.10;;;;;;;7.79;100.00;99793.28;6022248;23;20209;-80
2022/10/23 06:33:56;;;;;;;7.33;5.97;;;;;;;7.91;100.00;99797.84;6023335;23;20763;-80
2022/10/23 06:36:26;;;;;;;6.60;5.80;;;;;;;8.02;100.00;99804.47;6046012;23;20209;-80
2022/10/23 06:39:01;;;;;;;5.33;4.47;;;;;;;8.16;100.00;99803.50;6049020;23;20209;-80
2022/10/23 06:41:47;;;;;;;4.83;4.33;;;;;;;8.25;100.00;99806.81;6071767;23;20573;-81
2022/10/23 06:44:34;;;;;;;7.23;4.93;;;;;;;8.38;100.00;99802.38;6071274;23;20201;-80
2022/10/23 06:47:09;;;;;;;7.43;4.87;;;;;;;8.58;100.00;99805.09;6046426;23;20283;-80
2022/10/23 06:49:55;;;;;;;6.03;4.47;;;;;;;8.69;100.00;99803.66;6071030;23;20607;-80
2022/10/23 06:52:21;;;;;;;6.37;4.70;;;;;;;8.77;100.00;99803.50;6070234;23;20717;-80
2022/10/23 06:55:09;;;;;;;4.60;4.10;;;;;;;8.94;100.00;99794.03;6069778;23;20216;-80
2022/10/23 06:57:37;;;;;;;4.40;4.00;;;;;;;9.01;100.00;99788.69;6046058;23;20214;-80
2022/10/23 07:00:04;;;;;;;4.03;3.53;;;;;;;9.15;100.00;99790.31;6045126;23;20220;-80
2022/10/23 07:02:40;;;;;;;3.70;3.00;;;;;;;9.24;100.00;99789.09;6044781;23;20204;-80
2022/10/23 07:05:08;;;;;;;4.00;3.43;;;;;;;9.39;100.00;99787.03;6044065;23;20642;-80
2022/10/23 07:07:41;;;;;;;3.93;3.27;;;;;;;9.52;100.00;99784.31;6045202;23;20213;-80
2022/10/23 07:10:09;;;;;;;4.13;3.50;;;;;;;9.62;100.00;99775.84;6072187;23;20228;-81
2022/10/23 07:12:40;;;;;;;3.20;2.90;;;;;;;9.80;100.00;99770.66;6021667;23;20588;-79
2022/10/23 07:15:43;;;;;;;3.30;3.00;;;;;;;9.96;100.00;99772.06;5954203;24;20700;-80
2022/10/23 07:18:15;;;;;;;4.57;3.03;;;;;;;10.14;100.00;99778.34;6021758;23;20213;-79
2022/10/23 07:21:11;;;;;;;4.37;3.20;;;;;;;10.18;100.00;99769.91;6047230;23;20209;-80
2022/10/23 07:23:39;;;;;;;3.67;3.00;;;;;;;10.32;100.00;99790.25;6040922;23;20264;-80
2022/10/23 07:26:13;;;;;;;3.63;3.10;;;;;;;10.44;100.00;99781.34;6038347;23;20215;-79
2022/10/23 07:28:41;;;;;;;3.40;3.03;;;;;;;10.49;100.00;99780.69;6040478;23;20268;-80
2022/10/23 07:31:10;;;;;;;5.97;4.90;;;;;;;10.62;100.00;99796.69;6065812;23;20208;-81
2022/10/23 07:34:03;;;;;;;4.00;3.13;;;;;;;10.77;100.00;99794.53;6063514;23;20686;-80
2022/10/23 07:36:30;;;;;;;4.87;3.20;;;;;;;10.85;100.00;99798.78;6040037;23;20487;-80
2022/10/23 07:38:56;;;;;;;6.17;3.90;;;;;;;10.92;100.00;99796.88;6039950;23;20571;-81
2022/10/23 07:41:23;;;;;;;5.73;3.60;;;;;;;11.01;100.00;99800.94;6064856;23;20260;-78
2022/10/23 07:43:50;;;;;;;5.47;3.60;;;;;;;11.10;100.00;99796.13;6038733;23;20315;-78
2022/10/23 07:46:17;;;;;;;12.63;8.50;;;;;;;11.21;100.00;99800.78;6038544;23;20720;-78
2022/10/23 07:48:44;;;;;;;6.70;4.97;;;;;;;11.32;100.00;99798.19;6038735;23;20213;-78
2022/10/23 07:51:13;;;;;;;3.27;2.97;;;;;;;11.41;100.00;99796.88;6039252;23;20215;-77
2022/10/23 07:53:45;;;;;;;3.43;2.70;;;;;;;11.52;100.00;99797.19;6039267;23;20289;-80
2022/10/23 07:56:28;;;;;;;3.73;3.43;;;;;;;11.62;100.00;99803.69;6038523;23;20209;-80
2022/10/23 07:59:21;;;;;;;3.83;3.30;;;;;;;11.78;100.00;99794.25;6020227;23;20209;-83
2022/10/23 08:01:53;;;;;;;3.87;3.50;;;;;;;11.87;100.00;99796.44;6063038;23;20209;-81
2022/10/23 08:04:26;;;;;;;3.77;3.40;;;;;;;11.96;100.00;99796.94;6063053;23;20789;-80
2022/10/23 08:06:59;;;;;;;4.00;2.87;;;;;;;12.01;100.00;99799.78;6040022;23;20231;-82
2022/10/23 08:09:29;;;;;;;3.00;2.70;;;;;;;12.08;100.00;99803.22;6039462;23;20217;-87
2022/10/23 08:11:56;;;;;;;4.67;3.20;;;;;;;12.16;100.00;99802.91;6065363;23;20591;-81
2022/10/23 08:14:25;;;;;;;3.57;3.27;;;;;;;12.22;100.00;99790.44;6039030;23;20207;-82
2022/10/23 08:16:52;;;;;;;3.90;3.50;;;;;;;12.27;100.00;99791.38;6039288;23;20241;-81
2022/10/23 08:19:18;;;;;;;4.87;3.87;;;;;;;12.35;100.00;99791.09;6065054;23;20242;-82
2022/10/23 08:21:48;;;;;;;4.43;3.73;;;;;;;12.53;100.00;99792.91;6039212;23;20589;-81
2022/10/23 08:24:15;;;;;;;3.70;3.40;;;;;;;12.70;100.00;99791.22;6038725;23;20547;-84
2022/10/23 08:26:44;;;;;;;4.27;3.97;;;;;;;12.75;100.00;99785.13;6039414;23;20205;-82
2022/10/23 08:29:12;;;;;;;4.80;4.40;;;;;;;12.83;100.00;99792.06;6039266;23;20226;-82
2022/10/23 08:31:39;;;;;;;4.80;4.40;;;;;;;12.86;100.00;99791.59;6039256;23;20215;-82
2022/10/23 08:34:36;;;;;;;5.77;4.00;;;;;;;12.97;100.00;99793.50;6044878;23;20232;-81
2022/10/23 08:37:03;;;;;;;4.87;4.47;;;;;;;13.04;100.00;99786.13;6039526;23;20209;-81
2022/10/23 08:39:32;;;;;;;4.30;3.90;;;;;;;13.14;100.00;99783.72;6039585;23;20258;-83
2022/10/23 08:42:24;;;;;;;6.10;4.17;;;;;;;13.37;100.00;99781.06;6039089;23;20266;-83
2022/10/23 08:44:59;;;;;;;4.80;4.30;;;;;;;13.30;100.00;99777.66;6039243;23;20215;-80
2022/10/23 08:47:36;;;;;;;4.97;4.57;;;;;;;12.97;100.00;99772.78;6016764;23;20213;-87
2022/10/23 08:50:31;;;;;;;4.70;4.30;;;;;;;13.17;100.00;99772.50;6043815;23;20269;-84
2022/10/23 08:53:01;;;;;;;5.43;4.10;;;;;;;13.27;100.00;99766.53;6039666;23;20270;-82
2022/10/23 08:55:36;;;;;;;3.53;3.27;;;;;;;13.48;100.00;99779.44;6064832;23;20238;-82
2022/10/23 08:58:06;;;;;;;3.37;3.17;;;;;;;13.40;100.00;99767.13;6064474;23;20220;-84
2022/10/23 09:00:33;;;;;;;3.33;3.03;;;;;;;13.50;100.00;99763.84;6040058;23;20218;-87
2022/10/23 09:03:01;;;;;;;3.50;3.20;;;;;;;13.55;100.00;99769.34;5992863;23;20219;-83
2022/10/23 09:05:42;;;;;;;3.53;2.93;;;;;;;13.60;100.00;99767.59;6039980;23;20258;-86
2022/10/23 09:08:11;;;;;;;3.27;3.03;;;;;;;13.62;100.00;99762.78;6038889;23;20694;-88
2022/10/23 09:11:03;;;;;;;2.73;2.53;;;;;;;13.77;100.00;99762.28;6039249;23;20215;-89
2022/10/23 09:13:55;;;;;;;3.20;2.90;;;;;;;13.76;100.00;99752.59;6015970;23;20294;-82
2022/10/23 09:16:59;;;;;;;3.23;2.93;;;;;;;13.85;100.00;99753.88;6063484;23;20215;-82
2022/10/23 09:19:26;;;;;;;3.03;2.83;;;;;;;13.89;100.00;99743.44;6064690;23;20688;-88
2022/10/23 09:21:54;;;;;;;3.00;2.80;;;;;;;13.98;100.00;99750.06;6040310;23;20282;-90
2022/10/23 09:24:23;;;;;;;4.13;2.50;;;;;;;14.03;100.00;99745.63;6016168;23;20217;-86
2022/10/23 09:26:51;;;;;;;3.70;2.50;;;;;;;14.17;100.00;99746.16;6016049;23;20219;-89
2022/10/23 09:29:26;;;;;;;3.07;2.80;;;;;;;14.13;100.00;99744.19;6066469;23;20247;-88
2022/10/23 09:31:55;;;;;;;2.70;2.50;;;;;;;14.28;100.00;99745.28;6041993;23;20210;-89
2022/10/23 09:34:24;;;;;;;2.80;2.60;;;;;;;14.34;100.00;99733.53;6018473;23;20210;-88
2022/10/23 09:37:16;;;;;;;3.23;2.77;;;;;;;14.36;100.00;99730.63;6042086;23;20219;-88
2022/10/23 09:39:43;;;;;;;3.00;2.60;;;;;;;14.42;100.00;99717.00;6019134;23;20288;-89
2022/10/23 09:42:21;;;;;;;3.00;2.80;;;;;;;14.58;100.00;99736.13;6040805;23;20319;-88
2022/10/23 09:44:50;;;;;;;2.87;2.67;;;;;;;14.65;100.00;99726.81;6018177;23;20258;-89
2022/10/23 09:47:19;;;;;;;2.90;2.70;;;;;;;14.69;100.00;99724.47;6018330;23;20240;-89
2022/10/23 09:49:51;;;;;;;3.03;2.83;;;;;;;14.76;100.00;99717.84;6042799;23;20215;-88
2022/10/23 09:52:18;;;;;;;2.97;2.77;;;;;;;14.81;100.00;99719.81;6066510;23;20320;-89
2022/10/23 09:54:52;;;;;;;2.90;2.70;;;;;;;14.81;100.00;99728.72;6067805;23;20211;-89
2022/10/23 09:57:29;;;;;;;2.70;2.50;;;;;;;14.86;100.00;99730.69;6042473;23;20291;-89
2022/10/23 10:00:21;;;;;;;2.70;2.50;;;;;;;14.93;100.00;99734.06;6067554;23;20211;-89
2022/10/23 10:03:01;;;;;;;2.60;2.40;;;;;;;14.95;100.00;99738.13;5990232;23;20205;-89
2022/10/23 10:05:41;;;;;;;2.90;2.70;;;;;;;15.03;100.00;99727.97;5992935;23;20220;-88
2022/10/23 10:08:19;;;;;;;3.10;2.90;;;;;;;15.14;100.00;99727.09;5990671;23;20225;-87
2022/10/23 10:10:56;;;;;;;2.90;2.70;;;;;;;15.04;100.00;99722.34;6014200;23;20565;-88
2022/10/23 10:13:32;;;;;;;2.80;2.60;;;;;;;14.93;100.00;99721.38;6014094;23;20233;-87
2022/10/23 10:16:03;;;;;;;2.70;2.50;;;;;;;15.02;100.00;99715.59;6009355;23;20216;-88
2022/10/23 10:18:42;;;;;;;2.80;2.60;;;;;;;15.02;100.00;99718.28;6009491;23;20267;-88
2022/10/23 10:21:27;;;;;;;2.70;2.50;;;;;;;15.13;100.00;99717.34;6005077;23;20219;-89
2022/10/23 10:24:45;;;;;;;2.30;2.10;;;;;;;15.13;100.00;99714.66;5991198;23;20260;-89
2022/10/23 10:27:27;;;;;;;2.10;2.00;;;;;;;15.20;100.00;99708.03;5991272;23;20682;-87
2022/10/23 10:30:03;;;;;;;2.60;2.40;;;;;;;15.30;100.00;99702.75;6038780;23;20217;-89
2022/10/23 10:32:41;;;;;;;2.40;2.20;;;;;;;15.37;100.00;99697.19;6013696;23;20208;-88
2022/10/23 10:35:17;;;;;;;2.30;2.20;;;;;;;15.44;100.00;99692.44;6014504;23;20274;-88
2022/10/23 10:38:19;;;;;;;2.50;2.30;;;;;;;15.56;100.00;99697.75;6014172;23;20213;-88
2022/10/23 10:40:57;;;;;;;2.70;2.50;;;;;;;15.53;100.00;99688.28;6009010;23;20288;-89
2022/10/23 10:43:42;;;;;;;2.67;2.40;;;;;;;15.63;100.00;99693.78;6014116;23;20232;-88
2022/10/23 10:46:20;;;;;;;2.50;2.30;;;;;;;15.68;100.00;99693.84;5989966;23;20220;-88
2022/10/23 10:49:06;;;;;;;2.37;2.23;;;;;;;15.65;100.00;99690.84;5990783;23;20553;-88
2022/10/23 10:51:47;;;;;;;2.40;2.30;;;;;;;15.58;100.00;99691.06;5992255;23;20214;-87
2022/10/23 10:54:48;;;;;;;2.97;2.77;;;;;;;15.54;100.00;99684.50;6037433;23;20209;-87
2022/10/23 10:57:30;;;;;;;3.10;2.90;;;;;;;15.71;100.00;99673.66;6013834;23;20210;-89
2022/10/23 11:00:03;;;;;;;3.33;3.03;;;;;;;15.69;100.00;99668.50;6013635;23;20216;-88
2022/10/23 11:02:45;;;;;;;3.37;3.17;;;;;;;15.79;100.00;99667.78;6017883;23;20268;-87
2022/10/23 11:05:31;;;;;;;4.10;3.70;;;;;;;15.82;100.00;99678.91;6042127;23;20236;-88
2022/10/23 11:08:26;;;;;;;3.60;3.30;;;;;;;15.81;100.00;99676.47;6018610;23;20208;-88
2022/10/23 11:10:57;;;;;;;3.90;3.60;;;;;;;15.80;100.00;99669.44;6041560;23;20213;-87
2022/10/23 11:13:27;;;;;;;3.80;3.50;;;;;;;15.82;100.00;99661.88;6041896;23;20209;-87
2022/10/23 11:16:01;;;;;;;3.73;3.40;;;;;;;15.95;100.00;99663.38;6041894;23;20223;-88
2022/10/23 11:18:29;;;;;;;3.70;3.40;;;;;;;15.99;100.00;99661.81;6066579;23;20766;-88
2022/10/23 11:21:07;;;;;;;3.60;3.40;;;;;;;16.00;100.00;99658.88;6041797;23;20265;-88
2022/10/23 11:23:57;;;;;;;3.90;3.60;;;;;;;16.04;100.00;99659.16;6066410;23;20718;-87
2022/10/23 11:26:46;;;;;;;4.13;3.83;;;;;;;15.95;100.00;99658.81;5993680;23;20212;-89
2022/10/23 11:29:31;;;;;;;3.80;3.50;;;;;;;15.96;100.00;99657.72;6066654;23;20236;-88
2022/10/23 11:32:27;;;;;;;4.00;3.70;;;;;;;15.93;100.00;99646.59;6041159;23;20209;-87
2022/10/23 11:35:06;;;;;;;4.00;3.70;;;;;;;16.03;100.00;99657.53;6065521;23;20209;-87
2022/10/23 11:37:32;;;;;;;3.73;3.47;;;;;;;16.02;100.00;99635.09;6066135;23;20208;-88
2022/10/23 11:40:21;;;;;;;4.03;3.73;;;;;;;16.18;100.00;99655.00;6066746;23;20225;-88
2022/10/23 11:42:49;;;;;;;4.40;4.10;;;;;;;16.24;100.00;99651.25;6041219;23;20208;-89
2022/10/23 11:45:32;;;;;;;5.23;4.10;;;;;;;16.27;100.00;99638.06;6041906;23;20217;-87
2022/10/23 11:48:03;;;;;;;4.00;3.70;;;;;;;16.28;100.00;99625.34;6041806;23;20236;-87
2022/10/23 11:50:32;;;;;;;3.93;3.63;;;;;;;16.31;100.00;99614.00;6040778;23;20209;-88
2022/10/23 11:53:04;;;;;;;4.37;3.97;;;;;;;16.38;100.00;99621.94;6041586;23;20208;-88
2022/10/23 11:56:03;;;;;;;3.93;3.63;;;;;;;16.45;100.00;99623.34;6066072;23;20213;-87
2022/10/23 11:58:42;;;;;;;4.70;4.40;;;;;;;16.65;100.00;99611.91;6064589;23;20296;-87
2022/10/23 12:01:30;;;;;;;4.67;4.27;;;;;;;16.70;100.00;99610.00;6065777;23;20283;-87
2022/10/23 12:04:05;;;;;;;4.90;4.60;;;;;;;16.62;100.00;99610.50;6066168;23;20296;-87
2022/10/23 12:06:51;;;;;;;4.77;4.47;;;;;;;16.62;100.00;99599.69;6040760;23;20213;-87
2022/10/23 12:09:29;;;;;;;5.40;4.97;;;;;;;16.63;100.00;99601.31;6040968;23;20229;-87
2022/10/23 12:12:08;;;;;;;5.37;4.97;;;;;;;16.85;100.00;99609.31;6065721;23;20209;-87
2022/10/23 12:14:46;;;;;;;6.00;5.50;;;;;;;16.81;100.00;99605.50;6040816;23;20272;-87
2022/10/23 12:17:22;;;;;;;5.80;5.20;;;;;;;16.83;100.00;99603.34;6017494;23;20264;-87
2022/10/23 12:19:53;;;;;;;5.33;4.93;;;;;;;16.82;100.00;99590.91;6066263;23;20600;-88
2022/10/23 12:22:24;;;;;;;5.07;4.67;;;;;;;16.98;100.00;99600.72;6040948;23;20212;-88
2022/10/23 12:25:10;;;;;;;5.33;4.87;;;;;;;16.91;100.00;99589.34;6041290;23;20248;-87
2022/10/23 12:27:43;;;;;;;5.13;4.73;;;;;;;16.93;100.00;99581.78;6041042;23;20216;-87
2022/10/23 12:30:18;;;;;;;4.93;4.53;;;;;;;16.93;100.00;99573.66;6040937;23;20700;-87
2022/10/23 12:32:59;;;;;;;4.80;4.40;;;;;;;16.94;100.00;99569.03;6065067;23;20264;-87
2022/10/23 12:35:47;;;;;;;4.80;4.50;;;;;;;16.98;100.00;99559.34;6017574;23;20243;-87
2022/10/23 12:38:14;;;;;;;5.27;4.70;;;;;;;16.96;100.00;99564.19;6063862;23;20216;-86
2022/10/23 12:40:45;;;;;;;5.33;4.93;;;;;;;17.07;100.00;99557.75;6065240;23;20291;-87
2022/10/23 12:43:29;;;;;;;5.33;4.83;;;;;;;17.27;100.00;99562.44;6039727;23;20209;-87
2022/10/23 12:46:03;;;;;;;4.60;4.30;;;;;;;17.31;100.00;99553.50;6016708;23;20274;-86
2022/10/23 12:48:32;;;;;;;5.40;5.00;;;;;;;17.44;100.00;99553.03;6040618;23;20550;-85
2022/10/23 12:50:58;;;;;;;5.00;4.70;;;;;;;17.45;100.00;99548.44;6039472;23;20212;-85
2022/10/23 12:53:25;;;;;;;5.00;4.60;;;;;;;17.53;100.00;99548.72;6039798;23;20263;-85
2022/10/23 12:55:58;;;;;;;5.10;4.70;;;;;;;17.58;100.00;99540.66;6039602;23;20265;-84
2022/10/23 12:58:33;;;;;;;5.20;4.70;;;;;;;17.67;100.00;99540.94;6040642;23;20280;-87
2022/10/23 13:01:05;;;;;;;5.27;4.80;;;;;;;17.56;100.00;99540.06;6064844;23;20292;-84
2022/10/23 13:03:32;;;;;;;5.03;4.63;;;;;;;17.61;100.00;99542.00;6043335;23;20211;-87
2022/10/23 13:06:03;;;;;;;4.57;4.27;;;;;;;17.59;100.00;99536.03;5996267;23;20295;-88
2022/10/23 13:08:39;;;;;;;4.77;4.47;;;;;;;17.60;100.00;99527.63;6019850;23;20205;-87
2022/10/23 13:11:25;;;;;;;4.90;4.50;;;;;;;17.57;100.00;99525.44;6027039;23;20633;-87
2022/10/23 13:13:54;;;;;;;4.23;3.93;;;;;;;17.58;100.00;99518.13;6019640;23;20264;-86
2022/10/23 13:16:24;;;;;;;4.70;4.30;;;;;;;17.71;100.00;99508.69;6018544;23;20210;-88
2022/10/23 13:18:52;;;;;;;5.10;4.70;;;;;;;17.82;100.00;99504.94;6043370;23;20219;-87
2022/10/23 13:21:21;;;;;;;5.00;4.53;;;;;;;17.99;100.00;99502.75;6020056;23;20213;-87
2022/10/23 13:23:49;;;;;;;4.73;4.33;;;;;;;18.19;100.00;99505.47;6019930;23;20260;-87
2022/10/23 13:26:43;;;;;;;4.20;3.90;;;;;;;18.30;100.00;99508.97;6018753;23;20212;-87
2022/10/23 13:29:30;;;;;;;4.13;3.83;;;;;;;18.45;100.00;99490.78;6044655;23;20214;-87
2022/10/23 13:32:23;;;;;;;3.93;3.53;;;;;;;18.57;100.00;99495.94;6019726;23;20220;-88
2022/10/23 13:34:54;;;;;;;3.37;3.17;;;;;;;18.62;100.00;99492.41;6019227;23;20663;-86
2022/10/23 13:37:41;;;;;;;3.40;3.10;;;;;;;18.82;100.00;99495.88;6043370;23;20210;-86
2022/10/23 13:40:22;;;;;;;3.53;3.23;;;;;;;18.91;100.00;99501.53;6019442;23;20217;-88
2022/10/23 13:42:50;;;;;;;3.60;3.30;;;;;;;18.94;100.00;99487.44;6019797;23;20209;-87
2022/10/23 13:45:21;;;;;;;3.77;3.37;;;;;;;18.99;100.00;99487.38;6043306;23;20210;-87
2022/10/23 13:47:48;;;;;;;4.10;3.80;;;;;;;18.89;100.00;99479.31;6019695;23;20218;-88
2022/10/23 13:50:16;;;;;;;4.10;3.80;;;;;;;18.55;100.00;99470.19;6018633;23;20208;-87
2022/10/23 13:52:43;;;;;;;3.80;3.50;;;;;;;18.34;100.00;99481.03;6043237;23;20728;-87
2022/10/23 13:55:17;;;;;;;7.80;7.20;;;;;;;16.85;100.00;99476.72;5995389;23;20209;-87
2022/10/23 13:57:44;;;;;;;8.80;7.90;;;;;;;16.18;100.00;99474.72;6042835;23;20219;-87
2022/10/23 14:00:11;;;;;;;9.10;8.30;;;;;;;16.07;100.00;99489.22;6042399;23;20212;-88
2022/10/23 14:02:38;;;;;;;8.93;8.23;;;;;;;15.69;100.00;99486.72;6043375;23;20237;-88
2022/10/23 14:05:05;;;;;;;9.20;8.47;;;;;;;15.32;100.00;99492.81;6019554;23;20268;-86
2022/10/23 14:07:32;;;;;;;8.70;8.00;;;;;;;15.18;100.00;99498.84;6040535;23;20266;-87
2022/10/23 14:09:58;;;;;;;9.63;8.83;;;;;;;14.84;100.00;99504.38;6018508;23;20231;-88
2022/10/23 14:12:25;;;;;;;9.53;8.73;;;;;;;14.51;100.00;99499.88;6040896;23;20292;-85
2022/10/23 14:14:52;;;;;;;10.60;9.70;;;;;;;14.43;100.00;99497.59;6017602;23;20370;-83
2022/10/23 14:17:19;;;;;;;10.93;9.97;;;;;;;14.32;100.00;99501.19;6041270;23;20205;-85
2022/10/23 14:19:46;;;;;;;10.30;9.47;;;;;;;14.29;100.00;99498.16;6066591;23;20216;-86
2022/10/23 14:22:12;;;;;;;10.67;9.77;;;;;;;14.11;100.00;99481.19;6041216;23;20286;-87
2022/10/23 14:24:39;;;;;;;10.67;9.77;;;;;;;14.21;100.00;99487.81;6040814;23;20207;-85
2022/10/23 14:27:05;;;;;;;10.77;9.87;;;;;;;13.85;100.00;99489.94;6066765;23;20216;-86
2022/10/23 14:29:32;;;;;;;11.53;10.53;;;;;;;13.69;100.00;99490.75;6066732;23;20211;-88
2022/10/23 14:31:59;;;;;;;12.07;10.87;;;;;;;13.70;100.00;99488.88;6017914;23;20209;-86